createdAt,value
2019-05-29T00:01:49.429Z,101819.95
2019-05-29T00:04:22.793Z,101824.31
2019-05-29T00:06:56.164Z,101821.19
2019-05-29T00:09:29.491Z,101824.30
2019-05-29T00:12:02.823Z,101830.37
2019-05-29T00:14:36.184Z,101833.44
2019-05-29T00:17:10.415Z,101839.10
2019-05-29T00:19:43.766Z,101839.10
2019-05-29T00:22:17.067Z,101835.61
2019-05-29T00:24:50.389Z,101835.61
2019-05-29T00:27:23.996Z,101830.41
2019-05-29T00:29:57.315Z,101829.98
2019-05-29T00:32:30.684Z,101838.22
2019-05-29T00:35:06.163Z,101844.31
2019-05-29T00:37:39.491Z,101845.62
2019-05-29T00:40:13.350Z,101847.81
2019-05-29T00:42:46.783Z,101850.86
2019-05-29T00:45:20.113Z,101853.03
2019-05-29T00:47:53.424Z,101857.37
2019-05-29T00:50:26.771Z,101857.30
2019-05-29T00:53:00.077Z,101854.73
2019-05-29T00:55:33.414Z,101858.23
2019-05-29T00:58:06.537Z,101864.29
2019-05-29T01:00:39.888Z,101863.88
2019-05-29T01:03:13.734Z,101859.98
2019-05-29T01:05:47.327Z,101862.59
2019-05-29T01:08:20.886Z,101859.52
2019-05-29T01:10:54.245Z,101858.22
2019-05-29T01:13:27.634Z,101864.72
2019-05-29T01:16:00.975Z,101862.55
2019-05-29T01:18:34.270Z,101870.80
2019-05-29T01:21:09.208Z,101870.37
2019-05-29T01:23:42.498Z,101872.99
2019-05-29T01:26:16.518Z,101875.59
2019-05-29T01:28:49.820Z,101874.73
2019-05-29T01:31:23.600Z,101878.23
2019-05-29T01:33:56.963Z,101872.98
2019-05-29T01:36:31.552Z,101871.23
2019-05-29T01:39:06.201Z,101881.69
2019-05-29T01:41:39.656Z,101879.05
2019-05-29T01:44:15.339Z,101883.40
2019-05-29T01:46:48.806Z,101882.99
2019-05-29T01:49:22.173Z,101882.09
2019-05-29T01:51:55.474Z,101876.45
2019-05-29T01:54:28.950Z,101885.61
2019-05-29T01:57:02.247Z,101882.54
2019-05-29T01:59:35.555Z,101886.05
2019-05-29T02:02:09.023Z,101900.37
2019-05-29T02:04:42.387Z,101900.36
2019-05-29T02:07:15.861Z,101899.93
2019-05-29T02:09:49.287Z,101898.61
2019-05-29T02:12:22.578Z,101902.51
2019-05-29T02:14:55.922Z,101900.80
2019-05-29T02:17:29.253Z,101907.75
2019-05-29T02:20:03.629Z,101901.22
2019-05-29T02:22:36.960Z,101909.91
2019-05-29T02:25:10.178Z,101909.89
2019-05-29T02:27:43.471Z,101921.65
2019-05-29T02:30:18.686Z,101918.15
2019-05-29T02:32:51.972Z,101914.25
2019-05-29T02:35:28.775Z,101915.99
2019-05-29T02:38:00.363Z,101923.36
2019-05-29T02:40:34.045Z,101922.06
2019-05-29T02:43:07.433Z,101924.23
2019-05-29T02:45:53.870Z,101917.73
2019-05-29T02:48:15.799Z,101921.64
2019-05-29T02:50:49.112Z,101923.35
2019-05-29T02:53:22.438Z,101917.72
2019-05-29T02:55:55.751Z,101919.89
2019-05-29T02:58:30.230Z,101922.06
2019-05-29T03:01:04.057Z,101922.51
2019-05-29T03:03:39.684Z,101924.23
2019-05-29T03:06:12.680Z,101928.12
2019-05-29T03:08:46.010Z,101927.69
2019-05-29T03:11:19.353Z,101935.07
2019-05-29T03:13:52.743Z,101932.47
2019-05-29T03:16:26.684Z,101937.25
2019-05-29T03:19:01.069Z,101937.23
2019-05-29T03:21:34.867Z,101948.08
2019-05-29T03:24:08.491Z,101954.17
2019-05-29T03:26:41.796Z,101958.50
2019-05-29T03:29:15.119Z,101957.20
2019-05-29T03:31:48.963Z,101958.07
2019-05-29T03:34:22.368Z,101964.16
2019-05-29T03:36:55.697Z,101958.99
2019-05-29T03:39:30.265Z,101957.23
2019-05-29T03:42:03.774Z,101954.64
2019-05-29T03:44:38.572Z,101963.33
2019-05-29T03:47:13.071Z,101973.34
2019-05-29T03:49:46.389Z,101978.17
2019-05-29T03:52:19.733Z,101986.00
2019-05-29T03:54:53.100Z,101990.34
2019-05-29T03:57:27.694Z,101985.52
2019-05-29T04:00:01.668Z,101983.34
2019-05-29T04:02:35.502Z,101983.70
2019-05-29T04:05:10.655Z,101988.02
2019-05-29T04:07:44.003Z,101990.58
2019-05-29T04:10:20.589Z,101993.13
2019-05-29T04:12:53.916Z,101992.66
2019-05-29T04:15:29.267Z,101996.13
2019-05-29T04:18:03.553Z,102005.70
2019-05-29T04:20:38.702Z,102006.55
2019-05-29T04:23:11.884Z,102007.44
2019-05-29T04:25:45.202Z,102018.73
2019-05-29T04:28:18.802Z,102023.50
2019-05-29T04:30:52.107Z,102030.03
2019-05-29T04:33:25.460Z,102028.75
2019-05-29T04:36:00.321Z,102031.34
2019-05-29T04:38:36.178Z,102036.11
2019-05-29T04:41:09.099Z,102038.56
2019-05-29T04:43:42.424Z,102038.25
2019-05-29T04:46:15.737Z,102044.38
2019-05-29T04:48:49.080Z,102049.16
2019-05-29T04:51:22.389Z,102057.89
2019-05-29T04:53:55.745Z,102055.26
2019-05-29T04:56:29.043Z,102058.75
2019-05-29T04:59:02.387Z,102064.86
2019-05-29T05:01:35.731Z,102068.36
2019-05-29T05:05:02.042Z,102069.52
2019-05-29T05:07:35.456Z,102068.33
2019-05-29T05:10:09.286Z,102073.13
2019-05-29T05:12:42.736Z,102076.20
2019-05-29T05:15:16.019Z,102073.58
2019-05-29T05:17:49.356Z,102080.09
2019-05-29T05:20:22.690Z,102075.31
2019-05-29T05:22:56.033Z,102078.36
2019-05-29T05:25:30.017Z,102081.74
2019-05-29T05:28:03.727Z,102087.91
2019-05-29T05:30:37.070Z,102092.75
2019-05-29T05:33:10.396Z,102097.55
2019-05-29T05:35:43.722Z,102095.82
2019-05-29T05:38:17.029Z,102093.66
2019-05-29T05:40:50.403Z,102099.09
2019-05-29T05:43:24.644Z,102092.77
2019-05-29T05:45:58.217Z,102092.34
2019-05-29T05:48:31.647Z,102093.20
2019-05-29T05:51:04.985Z,102098.03
2019-05-29T05:53:39.450Z,102096.72
2019-05-29T05:56:12.859Z,102104.55
2019-05-29T05:58:46.288Z,102101.55
2019-05-29T06:01:19.710Z,102105.02
2019-05-29T06:03:53.044Z,102103.30
2019-05-29T06:06:26.703Z,102109.38
2019-05-29T06:08:59.984Z,102110.23
2019-05-29T06:11:34.184Z,102113.30
2019-05-29T06:14:07.732Z,102112.91
2019-05-29T06:16:41.066Z,102125.05
2019-05-29T06:19:14.361Z,102125.91
2019-05-29T06:21:47.733Z,102123.76
2019-05-29T06:24:21.246Z,102130.70
2019-05-29T06:26:54.583Z,102133.32
2019-05-29T06:29:28.451Z,102129.41
2019-05-29T06:32:02.177Z,102130.69
2019-05-29T06:34:35.744Z,102137.25
2019-05-29T06:37:09.279Z,102135.50
2019-05-29T06:39:43.803Z,102142.06
2019-05-29T06:42:17.312Z,102142.48
2019-05-29T06:44:50.961Z,102142.04
2019-05-29T06:47:25.538Z,102138.96
2019-05-29T06:49:58.889Z,102144.20
2019-05-29T06:52:32.463Z,102145.52
2019-05-29T06:55:05.819Z,102146.86
2019-05-29T06:57:40.241Z,102149.03
2019-05-29T07:00:13.805Z,102152.50
2019-05-29T07:02:47.089Z,102151.64
2019-05-29T07:05:20.435Z,102146.84
2019-05-29T07:07:53.757Z,102146.39
2019-05-29T07:10:28.289Z,102147.58
2019-05-29T07:13:01.573Z,102152.88
2019-05-29T07:15:36.359Z,102155.08
2019-05-29T07:18:09.906Z,102153.33
2019-05-29T07:20:43.256Z,102158.16
2019-05-29T07:23:16.569Z,102159.48
2019-05-29T07:25:50.166Z,102151.20
2019-05-29T07:28:23.452Z,102155.99
2019-05-29T07:31:02.595Z,102166.85
2019-05-29T07:33:33.737Z,102168.63
2019-05-29T07:36:07.151Z,102164.70
2019-05-29T07:38:44.371Z,102163.80
2019-05-29T07:41:15.811Z,102165.09
2019-05-29T07:43:49.173Z,102169.02
2019-05-29T07:46:22.516Z,102170.73
2019-05-29T07:48:56.824Z,102174.20
2019-05-29T07:51:30.265Z,102171.59
2019-05-29T07:54:03.583Z,102170.53
2019-05-29T07:56:36.956Z,102172.80
2019-05-29T07:59:10.271Z,102172.39
2019-05-29T08:01:44.789Z,102172.78
2019-05-29T08:04:18.319Z,102169.31
2019-05-29T08:06:54.479Z,102173.66
2019-05-29T08:09:28.342Z,102170.17
2019-05-29T08:12:01.721Z,102167.98
2019-05-29T08:14:35.071Z,102163.64
2019-05-29T08:17:08.634Z,102163.62
2019-05-29T08:19:59.331Z,102163.59
2019-05-29T08:22:33.351Z,102159.68
2019-05-29T08:24:54.092Z,102164.90
2019-05-29T08:27:27.444Z,102158.95
2019-05-29T08:30:00.765Z,102160.86
2019-05-29T08:32:34.238Z,102166.16
2019-05-29T08:35:07.535Z,102159.13
2019-05-29T08:37:42.864Z,102152.16
2019-05-29T08:40:16.416Z,102151.98
2019-05-29T08:42:49.818Z,102146.86
2019-05-29T08:45:23.133Z,102149.97
2019-05-29T08:47:56.483Z,102150.80
2019-05-29T08:50:29.820Z,102147.30
2019-05-29T08:53:03.189Z,102145.99
2019-05-29T08:55:36.516Z,102144.73
2019-05-29T08:58:11.472Z,102146.47
2019-05-29T09:00:49.794Z,102143.81
2019-05-29T09:03:19.912Z,102147.28
2019-05-29T09:06:06.902Z,102148.63
2019-05-29T09:08:28.267Z,102149.63
2019-05-29T09:11:01.573Z,102151.59
2019-05-29T09:13:34.926Z,102148.56
2019-05-29T09:16:09.637Z,102148.68
2019-05-29T09:18:43.140Z,102153.30
2019-05-29T09:21:17.999Z,102150.75
2019-05-29T09:23:51.499Z,102162.53
2019-05-29T09:26:26.048Z,102156.91
2019-05-29T09:28:59.461Z,102153.17
2019-05-29T09:31:32.843Z,102155.56
2019-05-29T09:34:06.177Z,102152.08
2019-05-29T09:36:40.662Z,102153.81
2019-05-29T09:39:14.964Z,102153.41
2019-05-29T09:41:49.372Z,102146.44
2019-05-29T09:44:34.598Z,102142.95
2019-05-29T09:46:57.891Z,102146.91
2019-05-29T09:49:31.224Z,102147.95
2019-05-29T09:52:05.620Z,102143.32
2019-05-29T09:54:38.943Z,102142.45
2019-05-29T09:57:15.306Z,102142.88
2019-05-29T09:59:47.505Z,102138.98
2019-05-29T10:02:20.884Z,102147.76
2019-05-29T10:04:54.845Z,102152.55
2019-05-29T10:07:29.595Z,102144.73
2019-05-29T10:10:05.103Z,102151.28
2019-05-29T10:12:39.331Z,102153.47
2019-05-29T10:15:12.638Z,102147.35
2019-05-29T10:17:45.963Z,102155.20
2019-05-29T10:20:19.271Z,102156.08
2019-05-29T10:22:52.772Z,102138.69
2019-05-29T10:25:26.075Z,102139.97
2019-05-29T10:27:59.414Z,102142.61
2019-05-29T10:30:32.708Z,102143.81
2019-05-29T10:33:06.065Z,102143.03
2019-05-29T10:35:39.382Z,102136.92
2019-05-29T10:38:12.720Z,102145.44
2019-05-29T10:40:56.663Z,102139.45
2019-05-29T10:43:33.566Z,102141.30
2019-05-29T10:45:56.542Z,102139.14
2019-05-29T10:48:29.907Z,102134.33
2019-05-29T10:51:03.197Z,102129.55
2019-05-29T10:53:36.634Z,102135.64
2019-05-29T10:56:09.937Z,102127.39
2019-05-29T10:58:49.734Z,102129.73
2019-05-29T11:01:18.299Z,102129.00
2019-05-29T11:03:52.350Z,102123.00
2019-05-29T11:06:26.703Z,102122.13
2019-05-29T11:09:00.048Z,102125.66
2019-05-29T11:11:33.411Z,102113.78
2019-05-29T11:14:07.215Z,102115.59
2019-05-29T11:16:40.602Z,102116.91
2019-05-29T11:19:13.940Z,102119.11
2019-05-29T11:21:48.127Z,102121.73
2019-05-29T11:24:22.861Z,102113.91
2019-05-29T11:26:56.717Z,102115.81
2019-05-29T11:29:30.040Z,102123.85
2019-05-29T11:32:03.378Z,102123.05
2019-05-29T11:34:36.717Z,102116.98
2019-05-29T11:37:10.124Z,102116.47
2019-05-29T11:39:43.499Z,102118.56
2019-05-29T11:42:27.050Z,102113.44
2019-05-29T11:44:53.314Z,102108.63
2019-05-29T11:47:26.905Z,102109.72
2019-05-29T11:50:10.305Z,102109.48
2019-05-29T11:52:42.905Z,102096.40
2019-05-29T11:55:10.320Z,102101.19
2019-05-29T11:57:43.612Z,102111.67
2019-05-29T12:00:20.361Z,102111.70
2019-05-29T12:02:53.645Z,102110.00
2019-05-29T12:05:27.389Z,102110.39
2019-05-29T12:08:01.896Z,102113.72
2019-05-29T12:10:35.490Z,102111.64
2019-05-29T12:13:09.062Z,102109.91
2019-05-29T12:15:42.802Z,102105.18
2019-05-29T12:18:23.444Z,102104.75
2019-05-29T12:20:52.092Z,102103.36
2019-05-29T12:23:27.018Z,102106.84
2019-05-29T12:26:20.026Z,102103.39
2019-05-29T12:28:35.762Z,102091.16
2019-05-29T12:31:09.098Z,102095.55
2019-05-29T12:33:42.796Z,102097.28
2019-05-29T12:36:16.138Z,102096.36
2019-05-29T12:38:50.904Z,102090.69
2019-05-29T12:41:24.564Z,102095.52
2019-05-29T12:43:59.396Z,102095.97
2019-05-29T12:46:32.833Z,102092.41
2019-05-29T12:49:06.326Z,102089.91
2019-05-29T12:51:39.649Z,102090.95
2019-05-29T12:54:12.949Z,102088.36
2019-05-29T12:56:46.293Z,102074.84
2019-05-29T12:59:19.640Z,102090.05
2019-05-29T13:01:54.407Z,102082.19
2019-05-29T13:04:28.778Z,102085.23
2019-05-29T13:07:02.576Z,102083.93
2019-05-29T13:09:36.032Z,102078.27
2019-05-29T13:12:09.451Z,102003.94
2019-05-29T13:14:42.775Z,102065.16
2019-05-29T13:17:16.103Z,102079.45
2019-05-29T13:19:49.400Z,102068.92
2019-05-29T13:22:22.790Z,102068.53
2019-05-29T13:24:57.228Z,102067.66
2019-05-29T13:27:30.699Z,102062.84
2019-05-29T13:30:08.951Z,102067.13
2019-05-29T13:32:42.827Z,102066.30
2019-05-29T13:35:16.515Z,102050.53
2019-05-29T13:37:49.844Z,102050.53
2019-05-29T13:40:23.329Z,102052.42
2019-05-29T13:42:56.681Z,102047.24
2019-05-29T13:45:30.017Z,102048.11
2019-05-29T13:48:03.406Z,102049.84
2019-05-29T13:50:36.681Z,102052.40
2019-05-29T13:53:10.043Z,102048.24
2019-05-29T13:55:44.985Z,102042.08
2019-05-29T13:58:18.334Z,102044.73
2019-05-29T14:00:52.721Z,102042.48
2019-05-29T14:03:26.148Z,102037.13
2019-05-29T14:06:00.814Z,102032.86
2019-05-29T14:08:35.661Z,102039.41
2019-05-29T14:11:09.160Z,102045.02
2019-05-29T14:13:42.823Z,102037.73
2019-05-29T14:16:16.126Z,102029.00
2019-05-29T14:18:50.212Z,102029.03
2019-05-29T14:21:23.545Z,102032.09
2019-05-29T14:23:56.918Z,102026.01
2019-05-29T14:26:30.235Z,102016.41
2019-05-29T14:29:03.857Z,102022.50
2019-05-29T14:31:37.175Z,102017.70
2019-05-29T14:34:11.600Z,101940.55
2019-05-29T14:36:44.912Z,102015.62
2019-05-29T14:39:18.255Z,102011.73
2019-05-29T14:41:51.633Z,102007.86
2019-05-29T14:44:24.970Z,102011.41
2019-05-29T14:46:58.265Z,102010.95
2019-05-29T14:49:31.607Z,102008.32
2019-05-29T14:52:05.001Z,102009.11
2019-05-29T14:54:42.204Z,102008.72
2019-05-29T14:57:24.841Z,102006.13
2019-05-29T14:59:48.533Z,102004.88
2019-05-29T15:02:24.034Z,102005.77
2019-05-29T15:04:56.916Z,102005.72
2019-05-29T15:07:30.759Z,102003.56
2019-05-29T15:10:12.448Z,102000.39
2019-05-29T15:12:41.291Z,101991.42
2019-05-29T15:15:16.344Z,101997.67
2019-05-29T15:17:49.529Z,101992.85
2019-05-29T15:20:22.839Z,101988.16
2019-05-29T15:22:57.793Z,101992.51
2019-05-29T15:25:31.103Z,101994.19
2019-05-29T15:28:06.098Z,101990.95
2019-05-29T15:30:40.436Z,101988.88
2019-05-29T15:33:14.883Z,101985.95
2019-05-29T15:35:48.586Z,101981.16
2019-05-29T15:38:21.954Z,101980.34
2019-05-29T15:40:55.381Z,101982.15
2019-05-29T15:43:28.797Z,101981.41
2019-05-29T15:46:02.310Z,101977.55
2019-05-29T15:48:35.622Z,101975.34
2019-05-29T15:51:08.992Z,101979.29
2019-05-29T15:53:42.112Z,101985.39
2019-05-29T15:56:26.914Z,101971.89
2019-05-29T15:58:52.147Z,101971.94
2019-05-29T16:01:25.538Z,101971.09
2019-05-29T16:03:58.857Z,101974.14
2019-05-29T16:06:32.599Z,101978.99
2019-05-29T16:09:08.192Z,101975.53
2019-05-29T16:11:41.625Z,101978.59
2019-05-29T16:14:15.085Z,101978.80
2019-05-29T16:16:48.597Z,101971.52
2019-05-29T16:19:22.559Z,101976.38
2019-05-29T16:21:56.037Z,101967.95
2019-05-29T16:24:29.373Z,101964.98
2019-05-29T16:27:08.799Z,101967.22
2019-05-29T16:29:37.767Z,101958.91
2019-05-29T16:32:11.623Z,101965.81
2019-05-29T16:34:45.182Z,101955.79
2019-05-29T16:37:19.599Z,101955.94
2019-05-29T16:39:52.927Z,101957.78
2019-05-29T16:42:26.231Z,101892.77
2019-05-29T16:44:59.908Z,101953.44
2019-05-29T16:47:33.888Z,101956.02
2019-05-29T16:50:12.943Z,101954.61
2019-05-29T16:52:46.452Z,101955.10
2019-05-29T16:55:20.952Z,101949.97
2019-05-29T16:57:55.454Z,101951.20
2019-05-29T17:00:28.817Z,101947.63
2019-05-29T17:03:02.172Z,101950.19
2019-05-29T17:05:35.493Z,101947.66
2019-05-29T17:08:08.839Z,101945.66
2019-05-29T17:10:42.405Z,101954.01
2019-05-29T17:13:16.577Z,101950.80
2019-05-29T17:15:50.423Z,101950.28
2019-05-29T17:18:24.981Z,101957.36
2019-05-29T17:20:58.519Z,101951.58
2019-05-29T17:23:31.899Z,101953.17
2019-05-29T17:26:10.653Z,101948.20
2019-05-29T17:28:40.485Z,101951.45
2019-05-29T17:31:14.972Z,101944.92
2019-05-29T17:33:48.653Z,101939.21
2019-05-29T17:36:25.694Z,101949.73
2019-05-29T17:38:58.423Z,101949.34
2019-05-29T17:41:32.738Z,101942.80
2019-05-29T17:44:06.142Z,101943.72
2019-05-29T17:46:39.523Z,101940.23
2019-05-29T17:49:12.910Z,101938.99
2019-05-29T17:51:46.329Z,101949.55
2019-05-29T17:54:19.838Z,101956.56
2019-05-29T17:56:53.481Z,101950.96
2019-05-29T17:59:26.969Z,101940.05
2019-05-29T18:02:00.463Z,101938.37
2019-05-29T18:04:34.825Z,101941.92
2019-05-29T18:07:08.319Z,101939.89
2019-05-29T18:09:41.933Z,101946.39
2019-05-29T18:12:15.306Z,101945.08
2019-05-29T18:14:48.665Z,101946.49
2019-05-29T18:17:21.998Z,101950.85
2019-05-29T18:19:56.236Z,101957.02
2019-05-29T18:22:29.570Z,101949.63
2019-05-29T18:25:03.818Z,101948.52
2019-05-29T18:27:37.116Z,101950.84
2019-05-29T18:30:10.595Z,101949.98
2019-05-29T18:32:43.946Z,101948.28
2019-05-29T18:35:18.900Z,101953.56
2019-05-29T18:37:52.331Z,101950.11
2019-05-29T18:40:26.410Z,101952.77
2019-05-29T18:42:59.809Z,101944.91
2019-05-29T18:45:33.181Z,101945.81
2019-05-29T18:48:06.456Z,101944.91
2019-05-29T18:50:44.008Z,101934.93
2019-05-29T18:53:14.789Z,101938.90
2019-05-29T18:55:48.150Z,101935.42
2019-05-29T18:58:22.197Z,101939.80
2019-05-29T19:00:56.895Z,101939.12
2019-05-29T19:03:30.060Z,101939.74
2019-05-29T19:06:03.480Z,101938.43
2019-05-29T19:08:37.785Z,101955.07
2019-05-29T19:11:11.086Z,101956.39
2019-05-29T19:13:44.653Z,101958.58
2019-05-29T19:16:17.978Z,101963.38
2019-05-29T19:18:52.872Z,101969.05
2019-05-29T19:21:26.424Z,101971.45
2019-05-29T19:23:59.834Z,101972.02
2019-05-29T19:26:36.577Z,101979.04
2019-05-29T19:29:08.229Z,101974.11
2019-05-29T19:31:42.757Z,101980.33
2019-05-29T19:34:16.745Z,101983.90
2019-05-29T19:36:50.063Z,101980.84
2019-05-29T19:39:23.816Z,101986.94
2019-05-29T19:41:57.141Z,101988.71
2019-05-29T19:44:30.722Z,101990.30
2019-05-29T19:47:04.038Z,101988.67
2019-05-29T19:49:37.448Z,101986.95
2019-05-29T19:52:10.832Z,101969.64
2019-05-29T19:54:44.183Z,102000.49
2019-05-29T19:57:17.550Z,102008.77
2019-05-29T19:59:51.099Z,102006.48
2019-05-29T20:02:24.599Z,101939.75
2019-05-29T20:04:57.963Z,102007.84
2019-05-29T20:07:31.114Z,102011.38
2019-05-29T20:10:06.179Z,102024.03
2019-05-29T20:12:39.482Z,101938.52
2019-05-29T20:15:13.307Z,102024.88
2019-05-29T20:17:46.615Z,102029.69
2019-05-29T20:20:19.970Z,102029.73
2019-05-29T20:22:53.282Z,102032.34
2019-05-29T20:25:26.664Z,102034.96
2019-05-29T20:28:06.493Z,102032.36
2019-05-29T20:30:36.384Z,102028.86
2019-05-29T20:33:09.969Z,102031.45
2019-05-29T20:35:43.671Z,102025.38
2019-05-29T20:38:16.982Z,102030.61
2019-05-29T20:40:50.318Z,102031.03
2019-05-29T20:43:23.640Z,102030.58
2019-05-29T20:45:57.210Z,102029.75
2019-05-29T20:48:30.654Z,102026.67
2019-05-29T20:51:03.973Z,102033.19
2019-05-29T20:53:37.520Z,102024.46
2019-05-29T20:56:11.023Z,102017.92
2019-05-29T20:58:44.322Z,102017.49
2019-05-29T21:01:17.840Z,102019.22
2019-05-29T21:03:51.915Z,102029.91
2019-05-29T21:06:25.244Z,102023.06
2019-05-29T21:08:58.559Z,102020.06
2019-05-29T21:11:33.201Z,102027.03
2019-05-29T21:14:07.060Z,102027.47
2019-05-29T21:16:41.794Z,102023.56
2019-05-29T21:19:15.232Z,102023.13
2019-05-29T21:21:48.596Z,102024.03
2019-05-29T21:24:21.909Z,102026.19
2019-05-29T21:26:55.265Z,102023.64
2019-05-29T21:29:29.743Z,102026.25
2019-05-29T21:32:03.411Z,101960.72
2019-05-29T21:34:37.845Z,102033.66
2019-05-29T21:37:11.358Z,102024.50
2019-05-29T21:39:44.812Z,102021.86
2019-05-29T21:42:18.366Z,102024.48
2019-05-29T21:44:51.854Z,102018.20
2019-05-29T21:47:25.223Z,102004.83
2019-05-29T21:49:58.609Z,102003.53
2019-05-29T21:52:31.969Z,102004.86
2019-05-29T21:55:05.560Z,101997.89
2019-05-29T21:57:42.334Z,102002.26
2019-05-29T22:00:16.547Z,101996.61
2019-05-29T22:02:51.745Z,101998.80
2019-05-29T22:05:25.052Z,102000.53
2019-05-29T22:07:58.369Z,102004.03
2019-05-29T22:10:32.960Z,102004.88
2019-05-29T22:13:06.307Z,102002.30
2019-05-29T22:15:46.002Z,102002.74
2019-05-29T22:18:19.415Z,101998.39
2019-05-29T22:20:56.127Z,101994.94
2019-05-29T22:23:29.379Z,101996.23
2019-05-29T22:26:02.576Z,102002.22
2019-05-29T22:28:35.739Z,101997.07
2019-05-29T22:31:09.078Z,101995.34
2019-05-29T22:33:42.392Z,101987.52
2019-05-29T22:36:15.719Z,101980.91
2019-05-29T22:38:49.121Z,101987.03
2019-05-29T22:41:22.429Z,101986.20
2019-05-29T22:43:55.839Z,101986.22
2019-05-29T22:46:29.175Z,101977.09
2019-05-29T22:49:02.670Z,101978.87
2019-05-29T22:51:36.130Z,101981.49
2019-05-29T22:54:09.544Z,101977.17
2019-05-29T22:56:42.864Z,101980.66
2019-05-29T22:59:31.074Z,101968.02
2019-05-29T23:01:52.099Z,101974.55
2019-05-29T23:04:26.710Z,101966.30
2019-05-29T23:07:00.455Z,101969.37
2019-05-29T23:09:34.052Z,101968.07
2019-05-29T23:12:07.433Z,101961.11
2019-05-29T23:14:40.756Z,101958.94
2019-05-29T23:17:14.076Z,101955.86
2019-05-29T23:19:48.611Z,101955.45
2019-05-29T23:22:24.469Z,101956.77
2019-05-29T23:24:57.001Z,101953.73
2019-05-29T23:27:30.340Z,101953.01
2019-05-29T23:30:06.566Z,101951.86
2019-05-29T23:32:39.898Z,101948.86
2019-05-29T23:35:13.216Z,101944.98
2019-05-29T23:37:46.783Z,101942.39
2019-05-29T23:40:20.110Z,101942.61
2019-05-29T23:42:53.447Z,101940.14
2019-05-29T23:45:26.782Z,101934.55
2019-05-29T23:48:00.125Z,101933.25
2019-05-29T23:50:33.433Z,101933.30
2019-05-29T23:53:06.802Z,101931.03
2019-05-29T23:55:40.143Z,101882.03
2019-05-29T23:58:13.491Z,101933.70
